Ferry Kyoto II — JI3701 — position and weather

sailwx.info

Track history (hours):
 
Tides and Currents Weather Stations Pressure Air Temp Water Temp Dewpoint Dewpoint Depression Visibility Wind Speed Wind Dir Waves Ship Positions

Ferry Kyoto II

Last reported at 2017-Jan-22 17:12 UTC. Time now 2017-Jan-22 20:13 UTC.
Position N 33°47' E 132°07'.

Length 167 m; draft 5.6 m.

Type: Ship. MMSI: 431301641.

Date/timePositionNaut miles runAvg speedWind from/ knotsBaromVisibWave heightAir tempDewpointWater temp
2017-Jan-22 17:12N 33°47' E 132°07'1320.6
2017-Jan-22 16:33N 33°50' E 132°22'2121.5
2017-Jan-22 15:33N 34°01' E 132°45'11218.7
2017-Jan-22 09:33N 34°36' E 134°54'1919.2
2017-Jan-22 08:33N 34°37' E 135°17'7 6.0
2017-Jan-22 07:22N 34°37' E 135°26'0 0.0
2017-Jan-22 06:28N 34°37' E 135°26'0 0.0
2017-Jan-22 05:28N 34°37' E 135°26'0 0.0
2017-Jan-22 04:28N 34°37' E 135°26'0 0.0
2017-Jan-22 03:28N 34°37' E 135°26'0 0.0
2017-Jan-22 02:10N 34°37' E 135°26'0 0.0
2017-Jan-22 01:28N 34°37' E 135°26'0 0.0
2017-Jan-22 00:28N 34°37' E 135°26'0 0.0
2017-Jan-21 23:28N 34°37' E 135°26'0 0.0
2017-Jan-21 22:22N 34°37' E 135°26'0 0.0
2017-Jan-21 21:16N 34°37' E 135°26'0 0.0
2017-Jan-21 20:28N 34°37' E 135°26'1111.5
2017-Jan-21 19:33N 34°35' E 135°13'1818.1
2017-Jan-21 18:33N 34°34' E 134°51'10918.2
2017-Jan-21 12:33N 34°00' E 132°45'2221.5
2017-Jan-21 11:32N 33°46' E 132°25'15 0.8
2017-Jan-20 17:29N 33°47' E 132°07'2021.8
2017-Jan-20 16:33N 33°53' E 132°30'12918.4
2017-Jan-20 09:34N 34°37' E 134°57'1817.6
2017-Jan-20 08:33N 34°37' E 135°18'6 5.8
2017-Jan-20 07:28N 34°37' E 135°26'0 0.0
2017-Jan-20 06:28N 34°37' E 135°26'0 0.0
2017-Jan-20 05:28N 34°37' E 135°26'0 0.0
2017-Jan-20 04:28N 34°37' E 135°26'0 0.0
2017-Jan-20 03:28N 34°37' E 135°26'0 0.0
2017-Jan-20 02:28N 34°37' E 135°26'0 0.0
2017-Jan-20 01:28N 34°37' E 135°26'0 0.0
2017-Jan-20 00:28N 34°37' E 135°26'0 0.0
2017-Jan-19 23:28N 34°37' E 135°26'0 0.0
2017-Jan-19 21:22N 34°37' E 135°26'0 0.0
2017-Jan-19 20:28N 34°37' E 135°26'1212.8
2017-Jan-19 19:33N 34°35' E 135°12'1918.9
2017-Jan-19 18:33N 34°33' E 134°49'10818.0
2017-Jan-19 12:33N 33°59' E 132°45'2221.8
2017-Jan-19 11:33N 33°46' E 132°24'137 5.2
2017-Jan-18 09:33N 34°37' E 134°57'1918.7
2017-Jan-18 08:33N 34°37' E 135°19'5 5.2
2017-Jan-18 07:31N 34°37' E 135°26'0 0.0
2017-Jan-18 06:31N 34°37' E 135°26'0 0.0
2017-Jan-18 05:31N 34°37' E 135°26'0 0.0
2017-Jan-18 04:31N 34°37' E 135°26'0 0.0
2017-Jan-18 03:19N 34°37' E 135°26'0 0.0
2017-Jan-18 02:31N 34°37' E 135°26'0 0.0
2017-Jan-18 01:31N 34°37' E 135°26'0 0.0
2017-Jan-18 00:25N 34°37' E 135°26'0 0.0
2017-Jan-17 23:25N 34°37' E 135°26'0 0.0
2017-Jan-17 22:25N 34°37' E 135°26'0 0.0
2017-Jan-17 21:31N 34°37' E 135°26'0 0.0
2017-Jan-17 20:32N 34°37' E 135°26'1211.8
2017-Jan-17 19:33N 34°35' E 135°12'2019.7
2017-Jan-17 18:33N 34°32' E 134°48'9 0.3
2017-Jan-16 09:34N 34°37' E 134°57'1817.7
2017-Jan-16 08:33N 34°37' E 135°19'6 5.5
2017-Jan-16 07:32N 34°37' E 135°26'0 0.0
2017-Jan-16 06:32N 34°37' E 135°26'0 0.0
2017-Jan-16 05:32N 34°37' E 135°26'0 0.0
2017-Jan-16 04:20N 34°37' E 135°26'0 0.0
2017-Jan-16 03:26N 34°37' E 135°26'0 0.0
2017-Jan-16 02:32N 34°37' E 135°26'0 0.0
2017-Jan-16 01:32N 34°37' E 135°26'0 0.0
2017-Jan-16 00:32N 34°37' E 135°26'0 0.0
2017-Jan-15 23:32N 34°37' E 135°26'0 0.0
2017-Jan-15 22:32N 34°37' E 135°26'0 0.0
2017-Jan-15 21:32N 34°37' E 135°26'0 0.0
2017-Jan-15 20:32N 34°37' E 135°26'9 9.5
2017-Jan-15 19:33N 34°35' E 135°15'1919.1
2017-Jan-15 18:33N 34°34' E 134°52'2 0.1
2017-Jan-14 09:32N 34°35' E 134°54'1919.5
2017-Jan-14 08:33N 34°36' E 135°17'7 5.9
2017-Jan-14 07:20N 34°37' E 135°26'0 0.0
2017-Jan-14 06:29N 34°37' E 135°26'0 0.0
2017-Jan-14 05:29N 34°37' E 135°26'0 0.0
2017-Jan-14 04:29N 34°37' E 135°26'0 0.0
2017-Jan-14 03:29N 34°37' E 135°26'0 0.0
2017-Jan-13 23:23N 34°37' E 135°26'0 0.0
2017-Jan-13 22:29N 34°37' E 135°26'0 0.0
2017-Jan-13 21:29N 34°37' E 135°26'0 0.0
2017-Jan-13 20:29N 34°37' E 135°26'910.3
2017-Jan-13 19:33N 34°35' E 135°15'1919.2
2017-Jan-13 18:33N 34°34' E 134°51'  
Track history (hours):
 
Tides and Currents Weather Stations Pressure Air Temp Water Temp Dewpoint Dewpoint Depression Visibility Wind Speed Wind Dir Waves Ship Positions

Ferry Kyoto II

Last reported at 2017-Jan-22 17:12 UTC. Time now 2017-Jan-22 20:13 UTC.
Position N 33°47' E 132°07'.

Length 167 m; draft 5.6 m.

Type: Ship. MMSI: 431301641.

Date/timePositionNaut miles runAvg speedWind from/ knotsBaromVisibWave heightAir tempDewpointWater temp
2017-Jan-22 17:12N 33°47' E 132°07'1320.6
2017-Jan-22 16:33N 33°50' E 132°22'2121.5
2017-Jan-22 15:33N 34°01' E 132°45'11218.7
2017-Jan-22 09:33N 34°36' E 134°54'1919.2
2017-Jan-22 08:33N 34°37' E 135°17'7 6.0
2017-Jan-22 07:22N 34°37' E 135°26'0 0.0
2017-Jan-22 06:28N 34°37' E 135°26'0 0.0
2017-Jan-22 05:28N 34°37' E 135°26'0 0.0
2017-Jan-22 04:28N 34°37' E 135°26'0 0.0
2017-Jan-22 03:28N 34°37' E 135°26'0 0.0
2017-Jan-22 02:10N 34°37' E 135°26'0 0.0
2017-Jan-22 01:28N 34°37' E 135°26'0 0.0
2017-Jan-22 00:28N 34°37' E 135°26'0 0.0
2017-Jan-21 23:28N 34°37' E 135°26'0 0.0
2017-Jan-21 22:22N 34°37' E 135°26'0 0.0
2017-Jan-21 21:16N 34°37' E 135°26'0 0.0
2017-Jan-21 20:28N 34°37' E 135°26'1111.5
2017-Jan-21 19:33N 34°35' E 135°13'1818.1
2017-Jan-21 18:33N 34°34' E 134°51'10918.2
2017-Jan-21 12:33N 34°00' E 132°45'2221.5
2017-Jan-21 11:32N 33°46' E 132°25'15 0.8
2017-Jan-20 17:29N 33°47' E 132°07'2021.8
2017-Jan-20 16:33N 33°53' E 132°30'12918.4
2017-Jan-20 09:34N 34°37' E 134°57'1817.6
2017-Jan-20 08:33N 34°37' E 135°18'6 5.8
2017-Jan-20 07:28N 34°37' E 135°26'0 0.0
2017-Jan-20 06:28N 34°37' E 135°26'0 0.0
2017-Jan-20 05:28N 34°37' E 135°26'0 0.0
2017-Jan-20 04:28N 34°37' E 135°26'0 0.0
2017-Jan-20 03:28N 34°37' E 135°26'0 0.0
2017-Jan-20 02:28N 34°37' E 135°26'0 0.0
2017-Jan-20 01:28N 34°37' E 135°26'0 0.0
2017-Jan-20 00:28N 34°37' E 135°26'0 0.0
2017-Jan-19 23:28N 34°37' E 135°26'0 0.0
2017-Jan-19 21:22N 34°37' E 135°26'0 0.0
2017-Jan-19 20:28N 34°37' E 135°26'1212.8
2017-Jan-19 19:33N 34°35' E 135°12'1918.9
2017-Jan-19 18:33N 34°33' E 134°49'10818.0
2017-Jan-19 12:33N 33°59' E 132°45'2221.8
2017-Jan-19 11:33N 33°46' E 132°24'137 5.2
2017-Jan-18 09:33N 34°37' E 134°57'1918.7
2017-Jan-18 08:33N 34°37' E 135°19'5 5.2
2017-Jan-18 07:31N 34°37' E 135°26'0 0.0
2017-Jan-18 06:31N 34°37' E 135°26'0 0.0
2017-Jan-18 05:31N 34°37' E 135°26'0 0.0
2017-Jan-18 04:31N 34°37' E 135°26'0 0.0
2017-Jan-18 03:19N 34°37' E 135°26'0 0.0
2017-Jan-18 02:31N 34°37' E 135°26'0 0.0
2017-Jan-18 01:31N 34°37' E 135°26'0 0.0
2017-Jan-18 00:25N 34°37' E 135°26'0 0.0
2017-Jan-17 23:25N 34°37' E 135°26'0 0.0
2017-Jan-17 22:25N 34°37' E 135°26'0 0.0
2017-Jan-17 21:31N 34°37' E 135°26'0 0.0
2017-Jan-17 20:32N 34°37' E 135°26'1211.8
2017-Jan-17 19:33N 34°35' E 135°12'2019.7
2017-Jan-17 18:33N 34°32' E 134°48'9 0.3
2017-Jan-16 09:34N 34°37' E 134°57'1817.7
2017-Jan-16 08:33N 34°37' E 135°19'6 5.5
2017-Jan-16 07:32N 34°37' E 135°26'0 0.0
2017-Jan-16 06:32N 34°37' E 135°26'0 0.0
2017-Jan-16 05:32N 34°37' E 135°26'0 0.0
2017-Jan-16 04:20N 34°37' E 135°26'0 0.0
2017-Jan-16 03:26N 34°37' E 135°26'0 0.0
2017-Jan-16 02:32N 34°37' E 135°26'0 0.0
2017-Jan-16 01:32N 34°37' E 135°26'0 0.0
2017-Jan-16 00:32N 34°37' E 135°26'0 0.0
2017-Jan-15 23:32N 34°37' E 135°26'0 0.0
2017-Jan-15 22:32N 34°37' E 135°26'0 0.0
2017-Jan-15 21:32N 34°37' E 135°26'0 0.0
2017-Jan-15 20:32N 34°37' E 135°26'9 9.5
2017-Jan-15 19:33N 34°35' E 135°15'1919.1
2017-Jan-15 18:33N 34°34' E 134°52'2 0.1
2017-Jan-14 09:32N 34°35' E 134°54'1919.5
2017-Jan-14 08:33N 34°36' E 135°17'7 5.9
2017-Jan-14 07:20N 34°37' E 135°26'0 0.0
2017-Jan-14 06:29N 34°37' E 135°26'0 0.0
2017-Jan-14 05:29N 34°37' E 135°26'0 0.0
2017-Jan-14 04:29N 34°37' E 135°26'0 0.0
2017-Jan-14 03:29N 34°37' E 135°26'0 0.0
2017-Jan-13 23:23N 34°37' E 135°26'0 0.0
2017-Jan-13 22:29N 34°37' E 135°26'0 0.0
2017-Jan-13 21:29N 34°37' E 135°26'0 0.0
2017-Jan-13 20:29N 34°37' E 135°26'910.3
2017-Jan-13 19:33N 34°35' E 135°15'1919.2
2017-Jan-13 18:33N 34°34' E 134°51'  

Dump ship's entire track history